Latest Weather Observations for Groote Eylandt Airport

IDD60801

Issued at 5:01 pm CST Tuesday 28 June 2016 (issued every 30 minutes, with the page automatically refreshed every 10 minutes)

About weather observations | Map of weather stations | Latest weather observations for NT | Other Formats
Station Details ID: 014518 Name: GROOTE EYLANDT AIRPORT Lat: -13.97 Lon: 136.46 Height: 13.7 m
Data from the previous 72 hours. | See also: Recent months at Groote Eylandt Airport
Date/Time
CST
Temp
°C
App
Temp
°C
Dew
Point
°C
Rel
Hum
%
Delta-T
°C
Wind Press
QNH
hPa
Press
MSL
hPa
Rain since
9am
mm
Dir  Spd
km/h
Gust
km/h
Spd
kts
Gust
kts
28/05:00pm 24.6 25.4 19.0 71 3.6 SE 13 22 7 12 1015.5 1015.4 0.0
28/04:30pm 24.5 25.6 19.6 74 3.2 SE 13 24 7 13 1015.2 1015.1 0.0
28/04:00pm 24.3 25.4 19.6 75 3.0 SE 13 24 7 13 1015.2 1015.1 0.0
28/03:30pm 24.6 25.8 19.9 75 3.0 SE 13 22 7 12 1015.1 1015.0 0.0
28/03:00pm 24.9 26.5 19.9 74 3.2 ESE 11 19 6 10 1015.1 1015.0 0.0
28/02:30pm 25.1 26.7 19.9 73 3.4 SE 11 19 6 10 1015.3 1015.2 0.0
28/02:00pm 25.1 26.3 19.9 73 3.4 SE 13 20 7 11 1015.6 1015.5 0.0
28/01:30pm 25.2 25.6 19.8 72 3.5 ESE 17 28 9 15 1016.0 1016.0 0.0
28/01:00pm 25.4 26.6 19.8 71 3.6 ESE 13 22 7 12 1016.4 1016.4 0.0
28/12:30pm 25.5 26.2 19.6 70 3.8 SE 15 26 8 14 1016.7 1016.7 0.0
28/12:00pm 25.6 25.8 19.3 68 4.0 ESE 17 28 9 15 1017.1 1017.1 0.0
28/11:30am 26.1 26.4 19.7 68 4.1 ESE 17 28 9 15 1017.3 1017.3 0.0
28/11:00am 26.4 26.7 19.5 66 4.5 ESE 17 28 9 15 1017.3 1017.3 0.0
28/10:30am 27.1 27.2 19.2 62 5.1 ESE 17 24 9 13 1017.3 1017.3 0.0
28/10:00am 27.2 27.5 19.5 62 5.0 SE 17 26 9 14 1017.2 1017.2 0.0
28/09:30am 26.6 26.6 19.0 63 4.9 ESE 17 26 9 14 1017.1 1017.1 0.0
28/09:00am 26.0 26.1 19.2 66 4.4 SE 17 32 9 17 1016.9 1016.9 0.0
28/08:30am 25.6 25.8 19.3 68 4.0 SE 17 26 9 14 1016.6 1016.6 0.0
28/08:00am 25.2 26.9 19.3 70 3.8 SE 9 15 5 8 1016.2 1016.2 0.0
28/07:30am 24.5 26.2 19.3 73 3.3 ESE 9 20 5 11 1015.7 1015.6 0.0
28/07:00am 24.2 25.5 19.3 74 3.1 SE 11 22 6 12 1015.6 1015.5 0.0
28/06:30am 24.1 25.7 19.2 74 3.1 SE 9 15 5 8 1015.2 1015.1 0.0
28/06:00am 24.0 25.6 19.1 74 3.1 SE 9 17 5 9 1014.8 1014.7 0.0
28/05:30am 24.0 26.1 19.3 75 3.0 SE 7 13 4 7 1014.7 1014.6 0.0
28/05:00am 23.9 26.0 19.4 76 2.9 SE 7 11 4 6 1014.5 1014.4 0.0
28/04:30am 24.0 26.0 19.9 78 2.6 SE 9 11 5 6 1014.4 1014.3 0.0
28/04:00am 24.1 26.6 21.0 83 2.0 SE 9 15 5 8 1014.4 1014.3 0.0
28/03:30am 24.2 27.2 21.9 87 1.5 ESE 9 11 5 6 1014.4 1014.3 0.0
28/03:00am 24.0 27.5 21.9 88 1.4 SE 6 9 3 5 1014.5 1014.4 0.0
28/02:30am 24.1 27.7 22.0 88 1.4 ESE 6 7 3 4 1014.8 1014.7 0.0
28/02:00am 24.3 27.7 22.0 87 1.5 ESE 7 11 4 6 1014.8 1014.7 0.0
28/01:30am 24.6 28.1 22.1 86 1.7 ESE 7 11 4 6 1015.0 1014.9 0.0
28/01:00am 24.9 28.0 22.2 85 1.8 ESE 9 15 5 8 1015.2 1015.1 0.0
28/12:30am 25.2 28.0 22.3 84 1.9 SE 11 20 6 11 1015.4 1015.3 0.0
28/12:00am 25.3 28.6 22.6 85 1.8 SE 9 15 5 8 1015.2 1015.1 0.0
 
Date/Time
CST
Temp
°C
App
Temp
°C
Dew
Point
°C
Rel
Hum
%
Delta-T
°C
Wind Press
QNH
hPa
Press
MSL
hPa
Rain since
9am
mm
Dir  Spd
km/h
Gust
km/h
Spd
kts
Gust
kts
27/11:30pm 25.5 28.6 22.8 85 1.8 SE 11 19 6 10 1015.3 1015.2 0.0
27/11:00pm 25.1 28.9 22.8 87 1.6 SE 7 13 4 7 1015.5 1015.4 0.0
27/10:30pm 25.1 28.9 22.8 87 1.6 SSE 7 13 4 7 1015.4 1015.3 0.0
27/10:00pm 25.0 28.8 22.7 87 1.5 SE 7 11 4 6 1015.3 1015.2 0.0
27/09:30pm 25.0 29.0 22.7 87 1.5 SE 6 9 3 5 1015.2 1015.1 0.0
27/09:00pm 25.1 29.0 22.6 86 1.7 SE 6 11 3 6 1015.2 1015.1 0.0
27/08:30pm 25.4 29.1 22.3 83 2.1 SE 6 9 3 5 1015.1 1015.0 0.0
27/08:00pm 25.3 29.2 21.8 81 2.3 ESE 4 7 2 4 1014.8 1014.7 0.0
27/07:30pm 25.8 29.3 21.9 79 2.6 ESE 6 7 3 4 1014.7 1014.6 0.0
27/07:00pm 26.4 29.9 21.8 76 3.1 ESE 6 9 3 5 1014.3 1014.2 0.0
27/06:30pm 27.0 30.1 21.5 72 3.7 ESE 7 11 4 6 1014.1 1014.0 0.0
27/06:00pm 27.8 30.0 21.1 67 4.4 ESE 11 17 6 9 1013.8 1013.7 0.0
27/05:30pm 28.7 30.7 21.5 65 4.8 E 13 19 7 10 1013.6 1013.5 0.0
27/05:00pm 29.7 30.5 21.4 61 5.6 E 19 24 10 13 1013.1 1013.0 0.0
27/04:30pm 30.3 31.6 20.8 56 6.3 ESE 15 24 8 13 1012.7 1012.6 0.0
27/04:00pm 30.4 31.2 20.6 55 6.5 ENE 17 22 9 12 1012.4 1012.3 0.0
27/03:30pm 30.7 31.3 20.3 53 6.9 E 17 24 9 13 1012.1 1012.0 0.0
27/03:00pm 30.5 31.9 20.4 54 6.7 E 13 26 7 14 1012.2 1012.1 0.0
27/02:30pm 31.4 32.9 21.3 55 6.8 E 15 24 8 13 1012.3 1012.2 0.0
27/02:00pm 31.0 31.8 20.6 54 6.9 ESE 17 30 9 16 1012.5 1012.4 0.0
27/01:30pm 31.3 32.2 20.9 54 7.0 E 17 28 9 15 1012.7 1012.6 0.0
27/01:00pm 32.1 33.1 21.0 52 7.4 E 17 28 9 15 1013.0 1012.9 0.0
27/12:30pm 30.7 31.4 19.7 52 7.2 E 15 28 8 15 1013.2 1013.1 0.0
27/12:00pm 31.3 31.4 19.9 50 7.5 ENE 19 28 10 15 1013.6 1013.5 0.0
27/11:30am 31.2 31.8 20.2 52 7.3 ENE 17 26 9 14 1013.9 1013.8 0.0
27/11:00am 30.7 30.8 20.0 52 7.1 ENE 19 28 10 15 1014.0 1013.9 0.0
27/10:30am 30.5 30.7 20.1 53 6.9 ENE 19 28 10 15 1014.1 1014.0 0.0
27/10:00am 30.1 31.0 20.9 57 6.1 E 17 26 9 14 1014.2 1014.1 0.0
27/09:30am 29.0 31.3 22.0 66 4.7 E 13 17 7 9 1014.4 1014.3 0.0
27/09:00am 28.0 31.7 23.2 75 3.3 ESE 9 17 5 9 1014.7 1014.6 0.0
27/08:30am 26.2 30.6 23.5 85 1.8 ESE 6 9 3 5 1014.6 1014.5 0.0
27/08:00am 24.4 28.4 22.7 90 1.1 ENE 6 7 3 4 1014.3 1014.2 0.0
27/07:30am 21.8 24.9 21.0 95 0.5 ESE 6 7 3 4 1014.1 1014.0 0.0
27/07:00am 20.0 22.2 19.2 95 0.5 ESE 6 7 3 4 1013.8 1013.7 0.0
27/06:30am 20.0 22.2 19.2 95 0.5 ESE 6 9 3 5 1013.6 1013.5 0.0
27/06:00am 20.1 23.5 19.3 95 0.5 CALM 0 0 0 0 1013.1 1013.0 0.0
27/05:30am 20.2 23.5 19.2 94 0.6 CALM 0 0 0 0 1012.9 1012.8 0.0
27/05:00am 20.3 22.5 19.3 94 0.6 ESE 6 6 3 3 1012.8 1012.7 0.0
27/04:30am 20.2 22.4 19.2 94 0.6 ESE 6 9 3 5 1012.6 1012.5 0.0
27/04:00am 20.5 24.0 19.5 94 0.6 CALM 0 0 0 0 1012.5 1012.4 0.0
27/03:30am 20.7 23.1 19.7 94 0.6 ESE 6 6 3 3 1012.5 1012.4 0.0
27/03:00am 20.9 23.4 19.9 94 0.6 ESE 6 7 3 4 1012.5 1012.4 0.0
27/02:30am 20.7 24.3 19.7 94 0.6 CALM 0 0 0 0 1012.5 1012.4 0.0
27/02:00am 21.0 24.6 19.8 93 0.8 CALM 0 0 0 0 1012.7 1012.6 0.0
27/01:30am 20.9 23.3 19.7 93 0.8 ESE 6 7 3 4 1013.0 1012.9 0.0
27/01:00am 21.1 23.7 20.1 94 0.6 ESE 6 7 3 4 1013.2 1013.1 0.0
27/12:30am 21.1 23.5 20.1 94 0.6 E 7 9 4 5 1013.2 1013.1 0.0
27/12:00am 21.4 25.2 20.2 93 0.8 CALM 0 0 0 0 1013.5 1013.4 0.0
 
Date/Time
CST
Temp
°C
App
Temp
°C
Dew
Point
°C
Rel
Hum
%
Delta-T
°C
Wind Press
QNH
hPa
Press
MSL
hPa
Rain since
9am
mm
Dir  Spd
km/h
Gust
km/h
Spd
kts
Gust
kts
26/11:30pm 21.5 25.3 20.1 92 0.9 CALM 0 0 0 0 1013.7 1013.6 0.0
26/11:00pm 21.7 25.6 20.3 92 0.9 CALM 0 6 0 3 1013.7 1013.6 0.0
26/10:30pm 22.1 26.1 20.6 91 1.0 CALM 0 0 0 0 1013.6 1013.5 0.0
26/10:00pm 22.7 26.3 21.2 91 1.0 ESE 4 7 2 4 1013.5 1013.4 0.0
26/09:30pm 22.8 25.9 21.1 90 1.1 E 6 7 3 4 1013.4 1013.3 0.0
26/09:00pm 23.3 26.3 21.2 88 1.4 ESE 7 9 4 5 1013.3 1013.2 0.0
26/08:30pm 23.5 26.5 21.2 87 1.5 ESE 7 7 4 4 1012.9 1012.8 0.0
26/08:00pm 24.1 27.3 21.6 86 1.7 E 7 9 4 5 1012.6 1012.5 0.0
26/07:30pm 24.4 27.6 21.7 85 1.8 SSE 7 9 4 5 1012.5 1012.4 0.0
26/07:00pm 25.4 28.7 21.9 81 2.3 ESE 7 9 4 5 1012.1 1012.0 0.0
26/06:30pm 25.8 29.1 21.9 79 2.6 SE 7 9 4 5 1011.9 1011.8 0.0
26/06:00pm 26.3 29.6 21.9 77 2.9 S 7 15 4 8 1011.8 1011.7 0.0
26/05:30pm 27.0 30.0 22.0 74 3.4 S 9 15 5 8 1011.5 1011.4 0.0
26/05:00pm 27.3 30.5 22.3 74 3.4 S 9 17 5 9 1011.4 1011.3 0.0
26/04:30pm 27.4 30.0 22.6 75 3.3 S 13 22 7 12 1011.2 1011.1 0.0
26/04:00pm 27.5 29.9 22.2 73 3.6 SSW 13 24 7 13 1011.2 1011.1 0.0
26/03:30pm 27.5 30.1 22.0 72 3.7 SSW 11 19 6 10 1011.2 1011.1 0.0
26/03:00pm 27.2 29.2 22.2 74 3.4 SW 15 24 8 13 1011.4 1011.3 0.0
26/02:30pm 28.3 31.0 22.1 69 4.2 SW 11 19 6 10 1011.6 1011.5 0.0
26/02:00pm 27.8 29.8 22.3 72 3.7 SW 15 26 8 14 1011.7 1011.6 0.0
26/01:30pm 27.4 29.0 22.1 73 3.6 WSW 17 28 9 15 1012.0 1011.9 0.0
26/01:00pm 28.6 31.4 22.3 68 4.3 W 11 20 6 11 1012.3 1012.2 0.0
26/12:30pm 29.3 32.1 21.5 63 5.2 E 9 13 5 7 1012.5 1012.4 0.0
26/12:00pm 29.1 31.3 21.8 64 4.9 E 13 19 7 10 1013.1 1013.0 0.0
26/11:30am 29.6 31.9 22.1 64 5.1 E 13 17 7 9 1013.4 1013.3 0.0
26/11:00am 28.3 31.4 22.1 69 4.2 ESE 9 13 5 7 1014.0 1013.9 0.0
26/10:30am 28.1 30.9 22.3 70 3.9 SE 11 19 6 10 1014.3 1014.2 0.0
26/10:00am 27.4 30.6 22.4 74 3.4 SE 9 13 5 7 1014.4 1014.3 0.0
26/09:30am 27.2 30.5 22.6 76 3.1 SE 9 13 5 7 1014.4 1014.3 0.0
26/09:00am 26.3 30.1 22.8 81 2.4 SE 7 11 4 6 1014.5 1014.4 0.0
26/08:30am 24.3 28.9 21.8 86 1.7 CALM 0 0 0 0 1014.4 1014.3 0.0
26/08:00am 22.0 25.8 20.1 89 1.2 CALM 0 0 0 0 1014.2 1014.1 0.0
26/07:30am 19.1 22.0 18.3 95 0.5 CALM 0 0 0 0 1014.2 1014.1 0.0
26/07:00am 18.2 20.3 17.2 94 0.6 ESE 2 7 1 4 1013.8 1013.7 0.0
26/06:30am 18.2 20.7 17.2 94 0.6 CALM 0 0 0 0 1013.5 1013.4 0.0
26/06:00am 18.2 20.8 17.4 95 0.5 CALM 0 0 0 0 1013.1 1013.0 0.0
26/05:30am 17.9 20.3 17.1 95 0.5 CALM 0 0 0 0 1012.8 1012.7 0.0
26/05:00am 18.0 20.4 17.0 94 0.6 CALM 0 0 0 0 1012.6 1012.5 0.0
26/04:30am 18.5 21.1 17.5 94 0.6 CALM 0 0 0 0 1012.4 1012.3 0.0
26/04:00am 18.6 21.2 17.4 93 0.7 CALM 0 0 0 0 1012.2 1012.1 0.0
26/03:30am 18.7 21.4 17.7 94 0.6 CALM 0 0 0 0 1012.2 1012.1 0.0
26/03:00am 19.0 21.7 17.8 93 0.7 CALM 0 0 0 0 1012.2 1012.1 0.0
26/02:30am 19.4 22.3 18.2 93 0.7 CALM 0 0 0 0 1012.3 1012.2 0.0
26/02:00am 19.4 22.3 18.2 93 0.7 CALM 0 0 0 0 1012.5 1012.4 0.0
26/01:30am 19.9 23.0 18.6 92 0.8 CALM 0 0 0 0 1012.8 1012.7 0.0
26/01:00am 20.1 22.1 18.8 92 0.8 SSE 6 7 3 4 1012.8 1012.7 0.0
26/12:30am 20.7 24.1 19.4 92 0.8 CALM 0 0 0 0 1013.2 1013.1 0.0
26/12:00am 20.5 23.8 19.2 92 0.8 CALM 0 0 0 0 1013.2 1013.1 0.0
 
Date/Time
CST
Temp
°C
App
Temp
°C
Dew
Point
°C
Rel
Hum
%
Delta-T
°C
Wind Press
QNH
hPa
Press
MSL
hPa
Rain since
9am
mm
Dir  Spd
km/h
Gust
km/h
Spd
kts
Gust
kts
25/11:30pm 20.6 23.9 19.1 91 0.9 CALM 0 0 0 0 1013.5 1013.4 0.0
25/11:00pm 20.9 24.3 19.4 91 1.0 CALM 0 0 0 0 1013.5 1013.4 0.0
25/10:30pm 21.5 25.1 19.8 90 1.1 CALM 0 0 0 0 1013.7 1013.6 0.0
25/10:00pm 21.8 25.6 20.1 90 1.1 CALM 0 0 0 0 1013.9 1013.8 0.0
25/09:30pm 22.0 25.8 20.1 89 1.2 CALM 0 0 0 0 1014.1 1014.0 0.0
25/09:00pm 22.5 26.3 20.2 87 1.5 CALM 0 0 0 0 1014.2 1014.1 0.0
25/08:30pm 22.9 26.1 20.4 86 1.6 SE 4 7 2 4 1014.1 1014.0 0.0
25/08:00pm 23.4 26.1 20.3 83 2.0 SE 6 7 3 4 1013.7 1013.6 0.0
25/07:30pm 24.2 27.0 20.5 80 2.4 SE 6 7 3 4 1013.2 1013.1 0.0
25/07:00pm 24.8 27.5 20.3 76 2.9 ESE 6 9 3 5 1012.9 1012.8 0.0
25/06:30pm 25.8 28.0 20.4 72 3.5 ESE 9 13 5 7 1012.8 1012.7 0.0
25/06:00pm 26.5 28.3 20.3 68 4.1 ESE 11 17 6 9 1012.5 1012.4 0.0
25/05:30pm 27.2 28.0 19.8 64 4.8 ESE 15 26 8 14 1012.1 1012.0 0.0

Other Formats:

Comma delimited format used in spreadsheet applications
http://www.bom.gov.au/fwo/IDD60801/IDD60801.94153.axf

JavaScript Object Notation format (JSON) in row-major order
http://www.bom.gov.au/fwo/IDD60801/IDD60801.94153.json